Time;durP1;ratioP1;P1;durP2;ratioP2;P2;SDS_P1;SDS_P2;PMS_P1;PMS_P2;Temp;Humidity;BMP_temperature;BMP_pressure;BME280_temperature;BME280_humidity;BME280_pressure;Samples;Min_cycle;Max_cycle;Signal;HPM_P1;HPM_P2
2022/05/08 05:00:38;;;;;;;19.13;17.47;;;12.20;97.20;;;;;;1713535;28;20209;-76
2022/05/08 05:01:29;;;;;;;19.55;17.75;;;12.20;97.20;;;;;;1712345;28;20205;-76
2022/05/08 05:02:21;;;;;;;18.75;17.35;;;12.20;97.20;;;;;;1712377;28;20213;-77
2022/05/08 05:03:11;;;;;;;19.08;17.52;;;12.20;97.20;;;;;;1713694;28;20728;-77
2022/05/08 05:04:03;;;;;;;19.27;17.70;;;12.20;97.20;;;;;;1713800;28;20688;-77
2022/05/08 05:04:54;;;;;;;20.23;18.33;;;12.20;97.20;;;;;;1713831;28;20669;-77
2022/05/08 05:05:46;;;;;;;18.93;17.33;;;12.30;97.20;;;;;;1713650;28;20549;-77
2022/05/08 05:06:36;;;;;;;18.40;16.80;;;12.30;97.20;;;;;;1713715;28;20214;-76
2022/05/08 05:07:28;;;;;;;19.00;17.40;;;12.30;97.20;;;;;;1713041;28;20315;-76
2022/05/08 05:08:20;;;;;;;18.88;17.30;;;12.30;97.20;;;;;;1713494;28;20208;-77
2022/05/08 05:09:12;;;;;;;17.90;16.27;;;12.30;97.20;;;;;;1713725;28;20201;-77
2022/05/08 05:10:03;;;;;;;18.58;16.65;;;12.30;97.20;;;;;;1713664;28;20230;-77
2022/05/08 05:10:55;;;;;;;19.75;17.83;;;12.40;97.20;;;;;;1713019;28;20198;-76
2022/05/08 05:11:46;;;;;;;18.95;17.45;;;12.40;97.20;;;;;;1713394;28;20198;-77
2022/05/08 05:12:38;;;;;;;19.23;17.50;;;12.40;97.20;;;;;;1714733;28;20217;-77
2022/05/08 05:13:29;;;;;;;18.70;17.20;;;12.40;97.20;;;;;;1713454;28;20453;-76
2022/05/08 05:14:21;;;;;;;19.40;17.70;;;12.40;97.20;;;;;;1713371;28;20237;-77
2022/05/08 05:15:12;;;;;;;19.15;17.55;;;12.40;97.20;;;;;;1713834;28;20233;-77
2022/05/08 05:16:05;;;;;;;19.00;17.40;;;12.40;97.20;;;;;;1713531;28;20206;-77
2022/05/08 05:16:56;;;;;;;18.27;16.77;;;12.40;97.20;;;;;;1706923;28;20473;-77
2022/05/08 05:17:48;;;;;;;18.90;17.10;;;12.40;97.20;;;;;;1706704;28;20471;-77
2022/05/08 05:18:39;;;;;;;17.20;15.60;;;12.40;97.20;;;;;;1707110;28;20217;-77
2022/05/08 05:19:30;;;;;;;17.90;16.23;;;12.40;97.20;;;;;;1706827;28;20216;-77
2022/05/08 05:20:21;;;;;;;18.70;17.08;;;12.40;97.20;;;;;;1706694;28;20671;-77
2022/05/08 05:21:13;;;;;;;19.33;17.43;;;12.40;97.20;;;;;;1710988;28;20549;-77
2022/05/08 05:22:04;;;;;;;19.02;17.45;;;12.40;97.20;;;;;;1714876;28;20237;-77
2022/05/08 05:22:55;;;;;;;17.10;15.70;;;12.40;97.20;;;;;;1718959;28;20228;-76
2022/05/08 05:23:46;;;;;;;18.08;16.58;;;12.40;97.20;;;;;;1720451;28;20212;-77
2022/05/08 05:24:38;;;;;;;18.33;16.77;;;12.40;97.20;;;;;;1720436;28;20196;-77
2022/05/08 05:25:29;;;;;;;18.38;16.77;;;12.40;97.20;;;;;;1720195;28;20471;-77
2022/05/08 05:26:21;;;;;;;18.73;16.98;;;12.40;97.20;;;;;;1720057;28;20231;-76
2022/05/08 05:27:11;;;;;;;18.02;16.42;;;12.50;97.20;;;;;;1720337;28;20208;-77
2022/05/08 05:28:03;;;;;;;17.70;16.10;;;12.50;97.20;;;;;;1719938;28;20283;-76
2022/05/08 05:28:54;;;;;;;17.67;15.98;;;12.50;97.20;;;;;;1720284;28;20209;-76
2022/05/08 05:29:47;;;;;;;18.60;17.00;;;12.50;97.20;;;;;;1720354;28;20193;-77
2022/05/08 05:30:38;;;;;;;18.17;16.58;;;12.50;97.20;;;;;;1719382;28;20208;-76
2022/05/08 05:31:31;;;;;;;18.27;16.77;;;12.50;97.20;;;;;;1712785;28;20358;-77
2022/05/08 05:32:22;;;;;;;18.52;16.85;;;12.50;97.20;;;;;;1714432;28;20701;-76
2022/05/08 05:33:16;;;;;;;19.70;17.90;;;12.60;97.20;;;;;;1713285;28;20543;-77
2022/05/08 05:34:07;;;;;;;18.13;16.50;;;12.60;97.20;;;;;;1713559;28;20279;-77
2022/05/08 05:34:58;;;;;;;18.30;16.80;;;12.60;97.20;;;;;;1713454;28;20268;-77
2022/05/08 05:35:49;;;;;;;17.58;16.08;;;12.60;97.20;;;;;;1713729;28;20217;-77
2022/05/08 05:36:41;;;;;;;17.87;16.33;;;12.60;97.20;;;;;;1713636;28;20205;-77
2022/05/08 05:37:32;;;;;;;17.70;16.20;;;12.60;97.20;;;;;;1712945;28;20209;-76
2022/05/08 05:38:23;;;;;;;19.00;17.20;;;12.60;97.20;;;;;;1713523;28;20212;-77
2022/05/08 05:39:14;;;;;;;18.65;17.13;;;12.70;97.20;;;;;;1713712;28;20388;-77
2022/05/08 05:40:07;;;;;;;17.47;15.97;;;12.70;97.20;;;;;;1713543;28;20228;-77
2022/05/08 05:40:58;;;;;;;17.92;16.33;;;12.70;97.20;;;;;;1712589;28;20299;-76
2022/05/08 05:41:50;;;;;;;18.10;16.50;;;12.70;97.20;;;;;;1713366;28;20198;-77
2022/05/08 05:42:40;;;;;;;17.17;15.75;;;12.70;97.20;;;;;;1712605;28;20265;-76
2022/05/08 05:43:34;;;;;;;18.03;16.43;;;12.80;97.20;;;;;;1713437;28;20205;-76
2022/05/08 05:44:26;;;;;;;18.33;16.77;;;12.80;97.20;;;;;;1713511;28;20457;-76
2022/05/08 05:45:18;;;;;;;16.50;15.20;;;12.80;97.20;;;;;;1713782;28;20494;-77
2022/05/08 05:48:28;;;;;;;17.45;15.90;;;12.90;97.20;;;;;;1706949;29;20454;-76
2022/05/08 05:49:20;;;;;;;18.27;16.67;;;12.90;97.20;;;;;;1706572;28;20289;-76
2022/05/08 05:50:11;;;;;;;19.13;17.38;;;12.90;97.20;;;;;;1707402;28;20269;-77
2022/05/08 05:51:03;;;;;;;17.37;15.97;;;12.90;97.20;;;;;;1710714;28;20269;-76
2022/05/08 05:51:53;;;;;;;17.83;16.45;;;13.00;97.20;;;;;;1714749;28;20441;-77
2022/05/08 05:52:45;;;;;;;18.10;16.50;;;13.00;97.20;;;;;;1715587;28;20198;-77
2022/05/08 05:53:37;;;;;;;18.60;17.00;;;13.00;97.20;;;;;;1714838;28;20212;-77
2022/05/08 05:54:29;;;;;;;18.15;16.55;;;13.00;97.20;;;;;;1714855;28;20217;-76
2022/05/08 05:55:20;;;;;;;18.30;16.63;;;13.10;97.20;;;;;;1714477;28;20224;-77
2022/05/08 05:56:12;;;;;;;19.00;17.33;;;13.10;97.20;;;;;;1714639;28;20716;-76
2022/05/08 05:57:03;;;;;;;18.38;16.73;;;13.10;97.20;;;;;;1714749;28;20257;-76
2022/05/08 05:57:55;;;;;;;19.70;17.90;;;13.10;97.20;;;;;;1714405;28;20224;-76
2022/05/08 05:58:46;;;;;;;20.65;18.90;;;13.20;97.20;;;;;;1714510;28;20230;-76
2022/05/08 05:59:36;;;;;;;18.90;17.20;;;13.20;97.20;;;;;;1714764;28;20236;-77
2022/05/08 06:00:28;;;;;;;18.43;16.93;;;13.20;97.20;;;;;;1714571;28;20210;-76
2022/05/08 06:01:19;;;;;;;20.10;18.30;;;13.30;97.20;;;;;;1714066;28;20261;-76
2022/05/08 06:02:10;;;;;;;20.63;18.17;;;13.30;97.20;;;;;;1714240;28;20232;-76
2022/05/08 06:03:02;;;;;;;18.63;17.10;;;13.30;97.20;;;;;;1720308;28;20699;-76
2022/05/08 06:03:54;;;;;;;20.00;18.25;;;13.30;97.20;;;;;;1721582;28;20705;-77
2022/05/08 06:04:45;;;;;;;19.27;17.67;;;13.40;97.20;;;;;;1714629;28;20229;-76
2022/05/08 06:05:36;;;;;;;19.50;17.80;;;13.40;97.20;;;;;;1714880;28;20198;-77
2022/05/08 06:06:27;;;;;;;19.33;17.65;;;13.40;97.20;;;;;;1714782;28;20709;-76
2022/05/08 06:07:19;;;;;;;18.73;17.13;;;13.50;97.20;;;;;;1714614;28;20597;-76
2022/05/08 06:08:10;;;;;;;18.65;17.15;;;13.50;97.20;;;;;;1714907;28;20236;-76
2022/05/08 06:09:01;;;;;;;18.87;17.17;;;13.60;97.20;;;;;;1715635;28;20209;-76
2022/05/08 06:09:52;;;;;;;18.52;16.83;;;13.60;97.20;;;;;;1715728;28;20202;-76
2022/05/08 06:10:44;;;;;;;18.83;16.90;;;13.60;97.20;;;;;;1715332;28;20213;-76
2022/05/08 06:11:35;;;;;;;19.00;17.20;;;13.70;97.20;;;;;;1719794;28;20224;-76
2022/05/08 06:12:27;;;;;;;19.47;17.77;;;13.70;97.20;;;;;;1717629;28;20222;-77
2022/05/08 06:13:18;;;;;;;19.27;17.42;;;13.70;97.20;;;;;;1720463;28;20209;-76
2022/05/08 06:14:09;;;;;;;18.27;16.67;;;13.80;97.20;;;;;;1721233;28;20201;-76
2022/05/08 06:15:01;;;;;;;18.30;16.70;;;13.80;97.20;;;;;;1721656;28;20229;-76
2022/05/08 06:15:52;;;;;;;19.90;17.95;;;13.80;97.20;;;;;;1721826;28;20205;-77
2022/05/08 06:16:44;;;;;;;18.67;17.07;;;13.90;97.20;;;;;;1721378;28;20285;-77
2022/05/08 06:17:35;;;;;;;20.50;18.70;;;13.90;97.20;;;;;;1721201;28;20240;-77
2022/05/08 06:18:28;;;;;;;19.97;18.27;;;14.00;97.20;;;;;;1721352;28;20212;-77
2022/05/08 06:19:18;;;;;;;18.77;16.98;;;14.00;97.20;;;;;;1721280;28;20255;-77
2022/05/08 06:20:11;;;;;;;19.17;17.57;;;14.00;97.20;;;;;;1721175;28;20297;-76
2022/05/08 06:21:02;;;;;;;19.13;17.42;;;14.00;97.20;;;;;;1717697;28;20698;-77
2022/05/08 06:21:54;;;;;;;19.87;18.00;;;14.10;97.20;;;;;;1720469;28;20576;-77
2022/05/08 06:22:45;;;;;;;19.30;17.55;;;14.10;97.20;;;;;;1718322;28;20240;-76
2022/05/08 06:23:37;;;;;;;19.00;17.25;;;14.10;97.20;;;;;;1722039;28;20744;-77
2022/05/08 06:24:28;;;;;;;19.42;17.85;;;14.20;97.20;;;;;;1721547;28;20209;-77
2022/05/08 06:25:19;;;;;;;18.90;17.30;;;14.20;97.20;;;;;;1721603;28;20211;-77
2022/05/08 06:26:10;;;;;;;19.45;17.77;;;14.30;97.20;;;;;;1721497;28;20821;-77
2022/05/08 06:27:02;;;;;;;20.23;18.43;;;14.30;97.20;;;;;;1721308;28;20223;-76
2022/05/08 06:27:53;;;;;;;20.40;18.60;;;14.30;97.20;;;;;;1721051;28;20576;-77
2022/05/08 06:28:45;;;;;;;20.50;18.70;;;14.40;97.20;;;;;;1721140;28;20193;-77
2022/05/08 06:29:36;;;;;;;21.65;19.73;;;14.40;97.20;;;;;;1721349;28;20205;-77
2022/05/08 06:30:28;;;;;;;20.57;18.57;;;14.50;97.20;;;;;;1721193;28;20205;-76
2022/05/08 06:31:18;;;;;;;19.48;17.85;;;14.50;97.20;;;;;;1716985;28;20813;-76
2022/05/08 06:32:10;;;;;;;21.53;19.63;;;14.60;97.20;;;;;;1718268;28;21949;-76
2022/05/08 06:33:01;;;;;;;20.40;18.60;;;14.60;97.20;;;;;;1720173;28;20201;-77
2022/05/08 06:33:54;;;;;;;19.50;17.83;;;14.70;97.20;;;;;;1721315;28;20205;-76
2022/05/08 06:34:46;;;;;;;21.92;19.90;;;14.70;97.20;;;;;;1721341;28;20212;-76
2022/05/08 06:35:39;;;;;;;21.17;19.35;;;14.80;97.20;;;;;;1721397;28;20289;-76
2022/05/08 06:36:29;;;;;;;20.50;18.77;;;14.90;97.20;;;;;;1721173;28;20262;-76
2022/05/08 06:37:21;;;;;;;21.30;19.50;;;14.90;97.20;;;;;;1721112;28;20201;-76
2022/05/08 06:38:12;;;;;;;24.65;19.67;;;15.00;97.20;;;;;;1715201;28;20205;-76
2022/05/08 06:39:04;;;;;;;22.25;20.25;;;15.00;97.20;;;;;;1714507;28;20204;-77
2022/05/08 06:39:55;;;;;;;21.65;19.75;;;15.10;97.20;;;;;;1714633;28;20205;-77
2022/05/08 06:40:46;;;;;;;22.50;20.70;;;15.10;97.20;;;;;;1714131;28;20212;-76
2022/05/08 06:41:37;;;;;;;22.95;20.88;;;15.20;97.20;;;;;;1719187;28;20228;-76
2022/05/08 06:42:31;;;;;;;24.67;22.47;;;15.20;97.20;;;;;;1717046;28;20211;-76
2022/05/08 06:43:21;;;;;;;24.13;22.13;;;15.30;97.20;;;;;;1720996;28;20232;-77
2022/05/08 06:44:14;;;;;;;23.63;21.63;;;15.30;97.20;;;;;;1721161;28;20793;-76
2022/05/08 06:45:06;;;;;;;23.35;21.17;;;15.40;97.20;;;;;;1721231;28;20673;-77
2022/05/08 06:45:58;;;;;;;24.45;22.23;;;15.50;97.20;;;;;;1721135;28;20205;-77
2022/05/08 06:46:48;;;;;;;24.95;22.25;;;15.50;97.20;;;;;;1721043;28;20224;-77
2022/05/08 06:47:41;;;;;;;23.73;21.73;;;15.60;97.20;;;;;;1721075;28;20523;-77
2022/05/08 06:50:22;;;;;;;23.60;21.50;;;15.70;97.20;;;;;;1710109;28;20192;-76
2022/05/08 06:51:12;;;;;;;24.70;22.73;;;15.80;97.20;;;;;;1715520;28;20372;-77
2022/05/08 06:52:05;;;;;;;23.40;21.30;;;15.90;97.20;;;;;;1718921;28;20379;-77
2022/05/08 06:52:56;;;;;;;23.08;21.02;;;15.90;97.20;;;;;;1715475;28;20569;-77
2022/05/08 06:53:47;;;;;;;22.98;21.08;;;16.00;97.20;;;;;;1714716;28;20237;-77
2022/05/08 06:54:38;;;;;;;23.08;21.08;;;16.00;97.20;;;;;;1713816;28;20552;-77
2022/05/08 06:55:30;;;;;;;22.70;20.70;;;16.10;97.20;;;;;;1714204;28;20632;-77
2022/05/08 06:56:20;;;;;;;21.95;20.05;;;16.10;97.20;;;;;;1714358;28;20595;-77
2022/05/08 06:57:12;;;;;;;23.87;21.70;;;16.20;97.20;;;;;;1714385;28;20205;-77
2022/05/08 06:58:03;;;;;;;23.00;20.92;;;16.20;97.20;;;;;;1714272;28;20225;-77
2022/05/08 07:02:24;;;;;;;24.00;21.98;;;16.50;97.20;;;;;;1716741;28;20677;-76
2022/05/08 07:03:14;;;;;;;22.92;21.00;;;16.50;97.20;;;;;;1721006;28;20212;-76
2022/05/08 07:04:07;;;;;;;22.20;20.30;;;16.60;97.20;;;;;;1721023;28;20201;-77
2022/05/08 07:04:58;;;;;;;23.02;20.85;;;16.60;97.20;;;;;;1720985;28;20204;-77
2022/05/08 07:05:51;;;;;;;22.67;20.77;;;16.60;97.20;;;;;;1720954;28;20201;-76
2022/05/08 07:06:42;;;;;;;22.40;20.52;;;16.70;97.20;;;;;;1720793;28;20205;-77
2022/05/08 07:07:33;;;;;;;22.90;20.90;;;16.70;97.20;;;;;;1720902;28;20692;-77
2022/05/08 07:08:24;;;;;;;25.10;22.90;;;16.70;97.20;;;;;;1720724;28;20724;-77
2022/05/08 07:09:16;;;;;;;23.33;21.33;;;16.80;97.20;;;;;;1716311;28;20590;-77
2022/05/08 07:10:07;;;;;;;22.75;20.85;;;16.80;97.20;;;;;;1714395;28;20206;-77
2022/05/08 07:11:00;;;;;;;22.63;20.73;;;16.80;97.20;;;;;;1714310;28;20206;-77
2022/05/08 07:11:50;;;;;;;23.48;21.45;;;16.90;97.20;;;;;;1719988;28;20244;-77
2022/05/08 07:12:42;;;;;;;24.03;22.13;;;16.90;97.20;;;;;;1717457;28;20194;-77
2022/05/08 07:13:35;;;;;;;23.10;21.10;;;17.00;97.20;;;;;;1721031;28;20216;-76
2022/05/08 07:14:27;;;;;;;22.52;20.73;;;17.00;97.20;;;;;;1721063;28;20201;-76
2022/05/08 07:15:17;;;;;;;23.40;21.08;;;17.00;97.20;;;;;;1721024;28;20228;-77
2022/05/08 07:16:09;;;;;;;24.00;22.00;;;17.10;97.20;;;;;;1721239;28;20239;-77
2022/05/08 07:17:00;;;;;;;22.48;20.52;;;17.10;97.20;;;;;;1721064;28;20673;-77
2022/05/08 07:17:52;;;;;;;21.93;19.93;;;17.20;97.20;;;;;;1720853;28;20558;-77
2022/05/08 07:18:42;;;;;;;22.15;20.13;;;17.20;97.20;;;;;;1720384;28;20568;-77
2022/05/08 07:19:34;;;;;;;22.67;20.67;;;17.30;97.20;;;;;;1720812;28;20240;-76
2022/05/08 07:20:25;;;;;;;22.55;20.52;;;17.30;97.20;;;;;;1720933;28;20213;-77
2022/05/08 07:21:19;;;;;;;21.97;20.07;;;17.40;97.20;;;;;;1716919;28;20189;-77
2022/05/08 07:22:09;;;;;;;22.58;20.48;;;17.40;97.20;;;;;;1718136;28;21288;-77
2022/05/08 07:23:01;;;;;;;24.03;21.93;;;17.50;97.20;;;;;;1719886;28;20605;-77
2022/05/08 07:23:52;;;;;;;23.30;21.27;;;17.50;97.20;;;;;;1714135;28;20248;-76
2022/05/08 07:24:44;;;;;;;22.20;20.20;;;17.60;97.20;;;;;;1715452;28;20198;-77
2022/05/08 07:25:35;;;;;;;22.25;20.20;;;17.60;97.20;;;;;;1716031;28;20434;-77
2022/05/08 07:26:27;;;;;;;22.23;20.27;;;17.60;97.20;;;;;;1714245;28;20201;-77
2022/05/08 07:27:17;;;;;;;23.30;21.30;;;17.70;97.20;;;;;;1714262;28;20212;-76
2022/05/08 07:28:10;;;;;;;22.13;20.33;;;17.70;97.20;;;;;;1714114;28;20237;-77
2022/05/08 07:29:00;;;;;;;22.92;20.95;;;17.80;97.20;;;;;;1713721;28;20264;-77
2022/05/08 07:30:45;;;;;;;22.40;20.60;;;17.90;97.20;;;;;;1744909;23;20228;-72
2022/05/08 07:31:36;;;;;;;23.80;21.80;;;17.90;97.20;;;;;;1727049;28;20207;-73
2022/05/08 07:32:27;;;;;;;22.60;20.70;;;17.90;97.20;;;;;;1728227;28;20279;-73
2022/05/08 07:33:19;;;;;;;22.98;20.88;;;18.00;97.20;;;;;;1734197;28;20212;-73
2022/05/08 07:36:31;;;;;;;23.90;21.90;;;18.10;97.20;;;;;;1733951;28;20203;-72
2022/05/08 07:37:22;;;;;;;22.60;20.70;;;18.20;97.20;;;;;;1734131;28;20215;-72
2022/05/08 07:38:16;;;;;;;24.67;22.40;;;18.20;97.20;;;;;;1727064;28;20232;-73
2022/05/08 07:39:07;;;;;;;25.42;22.33;;;18.20;97.20;;;;;;1726965;28;20538;-72
2022/05/08 07:39:58;;;;;;;23.33;21.33;;;18.30;97.20;;;;;;1726470;28;20291;-73
2022/05/08 07:40:51;;;;;;;23.30;21.20;;;18.30;97.20;;;;;;1720049;28;20200;-72
2022/05/08 07:41:42;;;;;;;23.60;21.33;;;18.40;97.20;;;;;;1725588;28;20231;-73
2022/05/08 07:42:33;;;;;;;22.60;20.70;;;18.40;97.20;;;;;;1723058;28;20193;-72
2022/05/08 07:43:25;;;;;;;22.80;20.75;;;18.40;97.20;;;;;;1727191;28;20851;-72
2022/05/08 07:44:17;;;;;;;22.08;20.15;;;18.50;97.20;;;;;;1727284;28;20207;-73
2022/05/08 07:45:08;;;;;;;22.67;20.63;;;18.50;97.20;;;;;;1727220;28;20204;-73
2022/05/08 07:46:00;;;;;;;23.20;21.30;;;18.50;97.20;;;;;;1727274;28;20658;-72
2022/05/08 07:46:51;;;;;;;22.58;20.58;;;18.60;97.20;;;;;;1727166;28;20454;-73
2022/05/08 07:47:43;;;;;;;21.13;19.30;;;18.60;97.20;;;;;;1726985;28;20234;-73
2022/05/08 07:48:34;;;;;;;21.52;19.83;;;18.60;97.20;;;;;;1726663;28;20231;-72
2022/05/08 07:49:26;;;;;;;20.73;18.92;;;18.70;97.20;;;;;;1727408;28;20565;-73
2022/05/08 07:50:17;;;;;;;21.80;19.80;;;18.70;97.20;;;;;;1727174;28;20266;-73
2022/05/08 07:51:09;;;;;;;21.90;20.00;;;18.70;97.20;;;;;;1723153;28;20197;-73
2022/05/08 07:52:01;;;;;;;22.98;21.08;;;18.80;97.20;;;;;;1725265;28;20579;-74
2022/05/08 07:52:53;;;;;;;21.20;19.30;;;18.80;97.20;;;;;;1725224;28;20266;-73
2022/05/08 07:53:44;;;;;;;22.63;20.38;;;18.90;97.20;;;;;;1727046;28;20232;-73
2022/05/08 07:54:36;;;;;;;20.97;19.30;;;18.90;97.20;;;;;;1727145;28;20231;-73
2022/05/08 07:55:26;;;;;;;22.50;20.63;;;19.00;97.20;;;;;;1727263;28;20622;-72
2022/05/08 07:56:19;;;;;;;21.10;19.20;;;19.00;97.20;;;;;;1727423;28;20629;-74
2022/05/08 07:57:10;;;;;;;21.27;19.33;;;19.00;97.20;;;;;;1727319;28;20204;-72
2022/05/08 07:58:02;;;;;;;21.07;19.23;;;19.10;97.20;;;;;;1727116;28;20202;-73
2022/05/08 07:58:53;;;;;;;22.88;20.92;;;19.10;97.20;;;;;;1726777;28;20552;-74
2022/05/08 07:59:44;;;;;;;21.48;19.63;;;19.10;97.20;;;;;;1726817;28;20208;-74
2022/05/08 08:00:36;;;;;;;20.40;18.77;;;19.10;97.20;;;;;;1726913;28;20223;-74
2022/05/08 08:01:27;;;;;;;19.83;18.17;;;19.10;97.20;;;;;;1723679;28;20197;-74
2022/05/08 08:02:18;;;;;;;19.87;18.27;;;19.10;97.20;;;;;;1723464;28;20241;-74
2022/05/08 08:03:09;;;;;;;19.48;17.88;;;19.10;97.20;;;;;;1727047;28;20627;-74
2022/05/08 08:04:01;;;;;;;20.43;18.77;;;19.20;97.20;;;;;;1727167;28;20568;-74
2022/05/08 08:04:52;;;;;;;20.65;18.95;;;19.20;97.20;;;;;;1727107;28;20226;-74
2022/05/08 08:05:44;;;;;;;19.87;18.27;;;19.20;97.20;;;;;;1726867;28;20231;-74
2022/05/08 08:06:35;;;;;;;20.95;19.05;;;19.30;97.20;;;;;;1722954;28;20224;-74
2022/05/08 08:07:28;;;;;;;20.03;18.30;;;19.30;97.20;;;;;;1720328;28;20208;-73
2022/05/08 08:08:21;;;;;;;20.60;18.90;;;19.40;97.20;;;;;;1720099;28;20479;-73
2022/05/08 08:09:13;;;;;;;20.10;18.38;;;19.40;97.20;;;;;;1720491;28;20259;-73
2022/05/08 08:10:05;;;;;;;20.13;18.27;;;19.50;97.20;;;;;;1720242;28;20209;-74
2022/05/08 08:10:59;;;;;;;18.48;16.88;;;19.50;97.20;;;;;;1720296;28;20201;-74
2022/05/08 08:11:50;;;;;;;19.45;17.73;;;19.60;97.20;;;;;;1725551;28;21034;-73
2022/05/08 08:12:42;;;;;;;19.27;17.63;;;19.60;97.20;;;;;;1723321;28;20908;-74
2022/05/08 08:13:34;;;;;;;18.73;17.05;;;19.70;97.20;;;;;;1726356;28;20222;-74
2022/05/08 08:14:25;;;;;;;18.50;16.90;;;19.70;97.20;;;;;;1726906;28;20200;-74
2022/05/08 08:15:16;;;;;;;18.20;16.55;;;19.70;97.20;;;;;;1726969;28;20239;-73
2022/05/08 08:16:10;;;;;;;18.80;17.10;;;19.80;97.20;;;;;;1727110;28;20212;-74
2022/05/08 08:17:01;;;;;;;18.83;17.25;;;19.80;97.20;;;;;;1726759;28;20203;-74
2022/05/08 08:17:52;;;;;;;17.93;16.20;;;19.90;97.20;;;;;;1726909;28;20203;-74
2022/05/08 08:18:44;;;;;;;17.80;16.30;;;19.90;97.20;;;;;;1726546;28;20235;-74
2022/05/08 08:19:35;;;;;;;17.73;16.23;;;20.00;97.20;;;;;;1726964;28;20303;-74
2022/05/08 08:20:26;;;;;;;16.58;15.27;;;20.00;97.20;;;;;;1728776;28;20671;-73
2022/05/08 08:21:18;;;;;;;18.50;16.90;;;20.10;97.20;;;;;;1722284;28;20292;-73
2022/05/08 08:22:09;;;;;;;18.15;16.63;;;20.10;97.20;;;;;;1724070;28;20719;-73
2022/05/08 08:23:02;;;;;;;16.80;15.30;;;20.20;97.20;;;;;;1725629;28;20690;-73
2022/05/08 08:23:53;;;;;;;17.88;16.20;;;20.20;97.20;;;;;;1726964;28;20714;-73
2022/05/08 08:24:44;;;;;;;18.00;16.30;;;20.30;97.20;;;;;;1726979;28;20193;-74
2022/05/08 08:25:35;;;;;;;17.00;15.70;;;20.40;97.20;;;;;;1727132;28;20682;-74
2022/05/08 08:26:27;;;;;;;17.53;16.03;;;20.40;97.20;;;;;;1726889;28;20616;-74
2022/05/08 08:27:19;;;;;;;16.65;15.13;;;20.50;97.20;;;;;;1726996;28;20239;-74
2022/05/08 08:28:10;;;;;;;16.50;15.18;;;20.50;97.20;;;;;;1726809;28;20546;-74
2022/05/08 08:29:01;;;;;;;17.60;16.20;;;20.60;97.20;;;;;;1726456;28;20196;-74
2022/05/08 08:29:54;;;;;;;17.67;16.17;;;20.60;97.20;;;;;;1726798;28;20201;-74
2022/05/08 08:30:45;;;;;;;16.35;14.90;;;20.70;97.20;;;;;;1725409;28;20247;-74
2022/05/08 08:31:36;;;;;;;17.40;15.75;;;20.70;97.20;;;;;;1725213;28;20219;-74
2022/05/08 08:32:27;;;;;;;18.13;16.73;;;20.80;97.20;;;;;;1723314;28;20197;-73
2022/05/08 08:33:19;;;;;;;18.07;16.57;;;20.80;97.20;;;;;;1727061;28;20307;-74
2022/05/08 08:34:10;;;;;;;17.75;16.25;;;20.90;97.20;;;;;;1727142;28;20216;-74
2022/05/08 08:35:01;;;;;;;17.70;16.30;;;21.00;97.20;;;;;;1725543;28;20211;-74
2022/05/08 08:35:52;;;;;;;16.83;15.23;;;21.00;97.20;;;;;;1713849;28;20202;-74
2022/05/08 08:36:44;;;;;;;17.60;15.97;;;21.10;97.20;;;;;;1713736;28;20693;-75
2022/05/08 08:37:34;;;;;;;16.17;14.88;;;21.10;97.20;;;;;;1713829;28;20289;-75
2022/05/08 08:38:28;;;;;;;18.23;16.80;;;21.20;97.20;;;;;;1714461;28;20234;-74
2022/05/08 08:39:19;;;;;;;17.52;16.10;;;21.30;97.20;;;;;;1717116;28;20254;-74
2022/05/08 08:40:11;;;;;;;17.50;15.90;;;21.30;97.20;;;;;;1721073;28;20205;-74
2022/05/08 08:41:04;;;;;;;18.17;16.60;;;21.30;97.20;;;;;;1719271;28;20260;-74
2022/05/08 08:42:03;;;;;;;18.65;16.95;;;21.40;97.20;;;;;;1719586;28;20201;-75
2022/05/08 08:42:58;;;;;;;17.85;16.45;;;21.40;97.20;;;;;;1725261;28;20193;-75
2022/05/08 08:48:32;;;;;;;15.50;14.18;;;21.60;97.20;;;;;;1718599;28;20204;-75
2022/05/08 08:49:24;;;;;;;14.07;12.85;;;21.60;97.20;;;;;;1719501;28;20213;-75
2022/05/08 08:50:17;;;;;;;14.30;13.00;;;21.60;97.20;;;;;;1720007;28;20288;-75
2022/05/08 08:51:11;;;;;;;13.60;12.40;;;21.70;97.20;;;;;;1720751;28;20219;-75
2022/05/08 08:52:02;;;;;;;15.25;13.95;;;21.70;97.20;;;;;;1724904;28;20627;-74
2022/05/08 08:52:55;;;;;;;14.00;12.90;;;21.70;97.20;;;;;;1724955;28;20189;-75
2022/05/08 08:53:47;;;;;;;14.70;13.50;;;21.70;97.20;;;;;;1726723;28;20212;-75
2022/05/08 08:54:39;;;;;;;14.05;12.65;;;21.70;97.20;;;;;;1727044;28;20204;-74
2022/05/08 08:55:31;;;;;;;12.82;11.73;;;21.80;97.20;;;;;;1726429;28;20234;-75
2022/05/08 08:56:22;;;;;;;13.63;12.63;;;21.80;97.20;;;;;;1726497;28;20702;-75
2022/05/08 08:57:14;;;;;;;12.70;11.40;;;21.80;97.20;;;;;;1725161;28;20656;-75
2022/05/08 08:58:04;;;;;;;13.02;12.02;;;21.90;97.20;;;;;;1719385;28;20212;-74
2022/05/08 08:58:56;;;;;;;13.70;12.60;;;21.90;97.20;;;;;;1719549;28;20205;-74
2022/05/08 08:59:47;;;;;;;13.35;12.25;;;22.00;97.20;;;;;;1720022;28;20676;-75
2022/05/08 09:00:39;;;;;;;12.60;11.50;;;22.00;97.20;;;;;;1719994;28;20225;-74
2022/05/08 09:01:32;;;;;;;12.90;11.60;;;22.00;97.20;;;;;;1725219;28;20224;-75
2022/05/08 09:02:24;;;;;;;12.50;11.45;;;22.00;97.20;;;;;;1722792;28;20316;-75
2022/05/08 09:03:19;;;;;;;12.20;11.20;;;22.00;97.20;;;;;;1726801;28;20712;-74
2022/05/08 09:04:11;;;;;;;12.00;11.10;;;22.00;97.20;;;;;;1721612;28;20308;-75
2022/05/08 09:05:04;;;;;;;13.07;11.88;;;22.00;97.20;;;;;;1720103;28;20243;-75
2022/05/08 09:05:56;;;;;;;13.00;11.80;;;22.00;97.20;;;;;;1720284;28;20292;-74
2022/05/08 09:06:47;;;;;;;11.38;10.45;;;22.00;97.20;;;;;;1720268;28;20212;-75
2022/05/08 09:07:41;;;;;;;11.00;10.13;;;22.00;97.20;;;;;;1720277;28;20211;-75
2022/05/08 09:08:33;;;;;;;11.65;10.75;;;22.00;97.20;;;;;;1719797;28;20236;-75
2022/05/08 09:09:28;;;;;;;10.60;9.70;;;22.00;97.20;;;;;;1720225;28;20661;-75
2022/05/08 09:10:20;;;;;;;10.45;9.65;;;22.00;97.20;;;;;;1720051;28;20237;-75
2022/05/08 09:11:14;;;;;;;10.32;9.52;;;22.00;97.20;;;;;;1721010;28;20275;-75
2022/05/08 09:12:16;;;;;;;11.77;10.82;;;22.00;97.20;;;;;;1724451;28;20204;-75
2022/05/08 09:13:08;;;;;;;10.60;9.75;;;22.00;97.20;;;;;;1726183;28;20185;-75
2022/05/08 09:13:59;;;;;;;11.40;10.30;;;22.00;97.20;;;;;;1727050;28;20208;-75
2022/05/08 09:14:51;;;;;;;11.40;10.50;;;22.00;97.20;;;;;;1726965;28;20200;-75
2022/05/08 09:15:42;;;;;;;10.63;9.60;;;22.00;97.20;;;;;;1726852;28;20204;-75
2022/05/08 09:16:52;;;;;;;10.63;9.63;;;22.10;97.20;;;;;;1726752;28;20218;-75
2022/05/08 09:17:44;;;;;;;9.68;8.88;;;22.10;97.20;;;;;;1726979;28;20205;-75
2022/05/08 09:18:44;;;;;;;9.90;9.10;;;22.20;97.20;;;;;;1721114;28;20498;-74
2022/05/08 09:19:37;;;;;;;10.43;9.63;;;22.30;97.20;;;;;;1720136;28;20197;-74
2022/05/08 09:20:32;;;;;;;10.38;9.30;;;22.40;97.20;;;;;;1720063;28;20228;-75
2022/05/08 09:22:34;;;;;;;11.65;10.75;;;22.50;97.20;;;;;;1722622;28;20297;-74
2022/05/08 09:23:25;;;;;;;10.27;9.40;;;22.60;97.20;;;;;;1726801;28;20211;-75
2022/05/08 09:24:16;;;;;;;9.40;8.50;;;22.60;97.20;;;;;;1726964;28;20669;-75
2022/05/08 09:25:08;;;;;;;10.90;9.90;;;22.70;97.20;;;;;;1727580;28;20201;-75
2022/05/08 09:26:02;;;;;;;10.63;9.73;;;22.80;97.20;;;;;;1728176;28;20244;-75
2022/05/08 09:27:08;;;;;;;10.10;9.30;;;22.80;97.20;;;;;;1721664;28;20284;-74
2022/05/08 09:28:00;;;;;;;20.40;9.85;;;22.80;97.20;;;;;;1714880;28;20253;-75
2022/05/08 09:28:52;;;;;;;10.40;9.60;;;22.90;97.20;;;;;;1718233;28;20205;-74
2022/05/08 09:29:43;;;;;;;10.82;9.93;;;22.90;97.20;;;;;;1721474;28;20668;-75
2022/05/08 09:30:35;;;;;;;11.10;10.15;;;23.00;97.20;;;;;;1721259;28;20239;-75
2022/05/08 09:31:27;;;;;;;10.93;9.98;;;23.00;97.20;;;;;;1724372;28;20197;-75
2022/05/08 09:32:34;;;;;;;11.18;10.25;;;23.10;97.20;;;;;;1725315;28;20646;-75
2022/05/08 09:33:28;;;;;;;10.85;9.88;;;23.20;97.20;;;;;;1714545;28;20202;-75
2022/05/08 09:34:19;;;;;;;11.63;10.52;;;23.30;97.20;;;;;;1720760;28;20216;-75
2022/05/08 09:35:11;;;;;;;10.87;9.97;;;23.30;97.20;;;;;;1721258;28;20232;-75
2022/05/08 09:36:03;;;;;;;10.75;9.65;;;23.40;97.20;;;;;;1721187;28;20204;-74
2022/05/08 09:37:06;;;;;;;11.02;10.02;;;23.50;97.20;;;;;;1721230;28;20284;-75
2022/05/08 09:37:56;;;;;;;11.32;10.30;;;23.60;97.20;;;;;;1721288;28;20202;-75
2022/05/08 09:38:50;;;;;;;10.43;9.53;;;23.60;97.20;;;;;;1720889;28;20197;-75
2022/05/08 09:39:41;;;;;;;10.80;9.85;;;23.60;97.20;;;;;;1720989;28;20208;-74
2022/05/08 09:40:34;;;;;;;11.03;9.77;;;23.70;97.20;;;;;;1720940;28;20700;-74